Time;durP1;ratioP1;P1;durP2;ratioP2;P2;SDS_P1;SDS_P2;PMS_P1;PMS_P2;Temp;Humidity;BMP_temperature;BMP_pressure;BME280_temperature;BME280_humidity;BME280_pressure;Samples;Min_cycle;Max_cycle;Signal;HPM_P1;HPM_P2
2021/10/31 00:00:06;;;;;;;79.85;49.65;;;;;;;;;;2089251;28;20124;-48
2021/10/31 00:01:08;;;;;;;85.68;43.83;;;;;;;;;;2086765;28;20156;-48
2021/10/31 00:02:09;;;;;;;82.28;50.65;;;;;;;;;;2088828;28;20414;-47
2021/10/31 00:03:10;;;;;;;78.63;42.42;;;;;;;;;;2087765;28;20095;-47
2021/10/31 00:04:11;;;;;;;88.25;50.20;;;;;;;;;;2086896;28;20054;-48
2021/10/31 00:05:12;;;;;;;80.13;42.95;;;;;;;;;;2088918;28;20170;-48
2021/10/31 00:06:13;;;;;;;92.35;51.55;;;;;;;;;;2089250;28;20178;-47
2021/10/31 00:07:15;;;;;;;85.00;46.08;;;;;;;;;;2086606;28;20582;-48
2021/10/31 00:08:15;;;;;;;96.78;51.42;;;;;;;;;;2089132;28;20045;-47
2021/10/31 00:09:17;;;;;;;91.00;52.40;;;;;;;;;;2089100;28;20053;-50
2021/10/31 00:10:19;;;;;;;98.43;49.63;;;;;;;;;;2086708;28;20051;-48
2021/10/31 00:11:20;;;;;;;88.30;50.75;;;;;;;;;;2088999;28;20049;-47
2021/10/31 00:12:21;;;;;;;93.88;48.63;;;;;;;;;;2088950;28;20195;-46
2021/10/31 00:13:23;;;;;;;98.97;57.43;;;;;;;;;;2088030;28;20052;-51
2021/10/31 00:14:24;;;;;;;104.43;54.72;;;;;;;;;;2089200;28;20124;-46
2021/10/31 00:15:25;;;;;;;87.68;52.63;;;;;;;;;;2088693;28;20051;-45
2021/10/31 00:16:26;;;;;;;90.20;48.50;;;;;;;;;;2086441;28;20417;-44
2021/10/31 00:17:27;;;;;;;98.63;53.13;;;;;;;;;;2089128;28;20045;-45
2021/10/31 00:18:28;;;;;;;93.10;52.05;;;;;;;;;;2087347;28;20059;-44
2021/10/31 00:19:29;;;;;;;87.22;47.13;;;;;;;;;;2088621;28;20049;-44
2021/10/31 00:20:30;;;;;;;82.10;47.90;;;;;;;;;;2089024;28;20077;-43
2021/10/31 00:21:33;;;;;;;84.47;48.72;;;;;;;;;;2086972;28;20055;-44
2021/10/31 00:22:34;;;;;;;83.55;46.25;;;;;;;;;;2088837;28;20140;-44
2021/10/31 00:23:35;;;;;;;84.00;48.95;;;;;;;;;;2088973;28;20627;-45
2021/10/31 00:24:36;;;;;;;80.05;44.97;;;;;;;;;;2089225;28;20049;-45
2021/10/31 00:25:37;;;;;;;88.05;50.20;;;;;;;;;;2088035;28;20475;-44
2021/10/31 00:26:38;;;;;;;93.32;46.40;;;;;;;;;;2089066;28;20045;-45
2021/10/31 00:27:39;;;;;;;84.78;49.92;;;;;;;;;;2088221;28;20578;-44
2021/10/31 00:28:40;;;;;;;87.43;48.63;;;;;;;;;;2088958;28;20053;-44
2021/10/31 00:29:42;;;;;;;83.22;44.80;;;;;;;;;;2089042;28;20512;-44
2021/10/31 00:30:43;;;;;;;85.57;50.78;;;;;;;;;;2086498;28;20056;-45
2021/10/31 00:31:44;;;;;;;81.03;46.05;;;;;;;;;;2088880;28;20049;-45
2021/10/31 00:32:45;;;;;;;81.78;47.90;;;;;;;;;;2088986;28;20124;-46
2021/10/31 00:33:46;;;;;;;76.37;44.53;;;;;;;;;;2086283;28;20110;-43
2021/10/31 00:34:47;;;;;;;84.00;44.17;;;;;;;;;;2088998;28;20509;-44
2021/10/31 00:35:48;;;;;;;81.22;46.28;;;;;;;;;;2088640;28;20041;-44
2021/10/31 00:36:49;;;;;;;80.78;44.33;;;;;;;;;;2086914;28;20513;-44
2021/10/31 00:37:50;;;;;;;80.47;47.17;;;;;;;;;;2088989;28;20410;-45
2021/10/31 00:38:51;;;;;;;69.32;39.65;;;;;;;;;;2088559;28;20047;-44
2021/10/31 00:39:52;;;;;;;68.63;39.90;;;;;;;;;;2087162;28;20132;-45
2021/10/31 00:40:53;;;;;;;77.07;46.83;;;;;;;;;;2089020;28;20132;-44
2021/10/31 00:41:55;;;;;;;73.80;44.72;;;;;;;;;;2088246;28;20041;-43
2021/10/31 00:42:55;;;;;;;76.57;44.88;;;;;;;;;;2087265;28;20053;-43
2021/10/31 00:43:57;;;;;;;81.43;48.60;;;;;;;;;;2088876;28;20123;-43
2021/10/31 00:44:58;;;;;;;73.28;41.50;;;;;;;;;;2087904;28;20152;-47
2021/10/31 00:45:59;;;;;;;74.50;43.63;;;;;;;;;;2086490;28;20128;-44
2021/10/31 00:47:00;;;;;;;74.15;43.22;;;;;;;;;;2088987;28;20049;-44
2021/10/31 00:48:01;;;;;;;68.78;38.40;;;;;;;;;;2087975;28;20041;-44
2021/10/31 00:49:02;;;;;;;81.50;44.15;;;;;;;;;;2087507;28;20102;-44
2021/10/31 00:50:04;;;;;;;76.07;44.63;;;;;;;;;;2088913;28;20052;-44
2021/10/31 00:51:05;;;;;;;70.70;45.53;;;;;;;;;;2087392;28;20124;-44
2021/10/31 00:52:09;;;;;;;73.50;43.75;;;;;;;;;;2087975;28;20132;-43
2021/10/31 00:53:10;;;;;;;74.13;43.45;;;;;;;;;;2088939;28;20147;-43
2021/10/31 00:54:12;;;;;;;79.88;43.88;;;;;;;;;;2089164;28;22677;-44
2021/10/31 00:55:13;;;;;;;70.43;41.83;;;;;;;;;;2087754;28;20044;-44
2021/10/31 00:56:14;;;;;;;70.07;41.67;;;;;;;;;;2088980;28;20098;-43
2021/10/31 00:57:15;;;;;;;70.32;41.50;;;;;;;;;;2086497;28;20094;-44
2021/10/31 00:58:16;;;;;;;73.70;44.65;;;;;;;;;;2088863;28;20479;-44
2021/10/31 00:59:17;;;;;;;68.30;39.42;;;;;;;;;;2088798;28;20124;-45
2021/10/31 01:00:19;;;;;;;71.87;43.30;;;;;;;;;;2086685;28;20048;-44
2021/10/31 01:01:20;;;;;;;79.32;44.55;;;;;;;;;;2088776;28;20076;-45
2021/10/31 01:02:21;;;;;;;70.53;43.17;;;;;;;;;;2088747;28;20055;-45
2021/10/31 01:03:22;;;;;;;70.10;45.55;;;;;;;;;;2085558;28;20069;-44
2021/10/31 01:04:25;;;;;;;77.00;42.20;;;;;;;;;;2090269;28;20118;-44
2021/10/31 01:05:30;;;;;;;76.32;43.40;;;;;;;;;;2089851;28;20077;-44
2021/10/31 01:06:58;;;;;;;81.53;45.63;;;;;;;;;;2088950;28;20128;-44
2021/10/31 01:08:10;;;;;;;67.30;40.83;;;;;;;;;;2072728;28;20050;-43
2021/10/31 01:09:15;;;;;;;67.50;43.22;;;;;;;;;;2084901;28;20040;-44
2021/10/31 01:10:20;;;;;;;73.93;43.42;;;;;;;;;;2082054;28;20052;-45
2021/10/31 01:11:26;;;;;;;67.50;39.53;;;;;;;;;;2082054;28;20136;-44
2021/10/31 01:12:33;;;;;;;76.60;45.75;;;;;;;;;;2087645;28;20125;-44
2021/10/31 01:13:41;;;;;;;70.43;41.45;;;;;;;;;;2090288;28;20060;-44
2021/10/31 01:14:52;;;;;;;70.80;43.03;;;;;;;;;;2090620;28;20040;-44
2021/10/31 01:16:00;;;;;;;63.88;38.17;;;;;;;;;;2088766;28;20388;-45
2021/10/31 01:17:05;;;;;;;74.40;44.53;;;;;;;;;;2089987;28;20467;-45
2021/10/31 01:18:24;;;;;;;77.10;47.47;;;;;;;;;;2087982;28;20049;-45
2021/10/31 01:19:34;;;;;;;74.80;45.83;;;;;;;;;;2081749;28;20155;-45
2021/10/31 01:20:43;;;;;;;72.18;45.58;;;;;;;;;;2083606;28;20132;-43
2021/10/31 01:21:50;;;;;;;68.35;40.08;;;;;;;;;;2088995;28;20055;-45
2021/10/31 01:23:01;;;;;;;68.50;39.65;;;;;;;;;;2090201;28;20157;-43
2021/10/31 01:24:16;;;;;;;71.00;42.70;;;;;;;;;;2089228;28;20094;-43
2021/10/31 01:25:38;;;;;;;67.63;41.28;;;;;;;;;;2090156;28;20091;-44
2021/10/31 01:26:46;;;;;;;72.57;41.97;;;;;;;;;;2086632;28;20043;-43
2021/10/31 01:27:57;;;;;;;69.47;41.17;;;;;;;;;;2082003;28;20307;-43
2021/10/31 01:29:14;;;;;;;74.82;42.58;;;;;;;;;;2081942;28;20538;-43
2021/10/31 01:30:17;;;;;;;76.18;42.83;;;;;;;;;;2088117;28;20100;-44
2021/10/31 01:31:23;;;;;;;72.30;40.88;;;;;;;;;;2090031;28;20073;-44
2021/10/31 01:32:31;;;;;;;70.25;42.22;;;;;;;;;;2088165;28;20048;-44
2021/10/31 01:33:39;;;;;;;67.93;43.53;;;;;;;;;;2089768;28;20143;-43
2021/10/31 01:34:44;;;;;;;68.22;43.40;;;;;;;;;;2090173;28;20049;-44
2021/10/31 01:35:49;;;;;;;70.93;39.33;;;;;;;;;;2087658;28;20041;-43
2021/10/31 01:36:58;;;;;;;63.05;41.45;;;;;;;;;;2089947;28;20071;-44
2021/10/31 01:38:05;;;;;;;66.82;42.97;;;;;;;;;;2089425;28;20155;-44
2021/10/31 01:39:13;;;;;;;68.47;40.45;;;;;;;;;;2087583;28;20522;-43
2021/10/31 01:40:17;;;;;;;63.22;40.78;;;;;;;;;;2089959;28;20063;-44
2021/10/31 01:41:22;;;;;;;65.70;38.88;;;;;;;;;;2090474;28;20128;-45
2021/10/31 01:42:25;;;;;;;66.45;43.63;;;;;;;;;;2088629;28;20128;-44
2021/10/31 01:43:29;;;;;;;74.05;41.50;;;;;;;;;;2089982;28;20561;-43
2021/10/31 01:44:38;;;;;;;69.55;43.53;;;;;;;;;;2089398;28;20045;-44
2021/10/31 01:45:42;;;;;;;63.28;37.38;;;;;;;;;;2081749;28;20133;-43
2021/10/31 01:46:55;;;;;;;72.28;44.72;;;;;;;;;;2081662;28;20052;-44
2021/10/31 01:47:56;;;;;;;;;;;;;;;;;;2088225;28;20045;-43
2021/10/31 01:48:59;;;;;;;68.43;36.28;;;;;;;;;;2089974;28;19963;-44
2021/10/31 01:50:06;;;;;;;68.35;41.38;;;;;;;;;;2089135;28;20132;-43
2021/10/31 01:51:11;;;;;;;64.53;40.88;;;;;;;;;;2087391;28;20516;-43
2021/10/31 01:52:14;;;;;;;63.15;38.20;;;;;;;;;;2089817;28;20475;-44
2021/10/31 01:53:18;;;;;;;64.90;40.60;;;;;;;;;;2087706;28;20053;-44
2021/10/31 01:54:21;;;;;;;63.83;37.72;;;;;;;;;;2089638;28;20483;-44
2021/10/31 01:55:24;;;;;;;61.38;39.95;;;;;;;;;;2089922;28;20128;-43
2021/10/31 01:56:26;;;;;;;64.40;38.13;;;;;;;;;;2087753;28;20071;-44
2021/10/31 01:57:28;;;;;;;59.72;37.58;;;;;;;;;;2089750;28;20480;-46
2021/10/31 01:58:29;;;;;;;;;;;;;;;;;;2090354;28;20494;-43
2021/10/31 01:59:33;;;;;;;63.80;37.30;;;;;;;;;;2087518;28;19924;-45
2021/10/31 02:00:35;;;;;;;67.10;38.10;;;;;;;;;;2090000;28;20132;-44
2021/10/31 02:01:37;;;;;;;57.70;37.53;;;;;;;;;;2090090;28;20045;-43
2021/10/31 02:02:41;;;;;;;60.40;37.47;;;;;;;;;;2088235;28;20048;-45
2021/10/31 02:03:44;;;;;;;62.50;40.47;;;;;;;;;;2088299;28;20417;-44
2021/10/31 02:04:46;;;;;;;60.47;37.90;;;;;;;;;;2089297;28;20049;-43
2021/10/31 02:05:47;;;;;;;63.95;37.58;;;;;;;;;;2088178;28;20080;-43
2021/10/31 02:06:50;;;;;;;60.45;39.47;;;;;;;;;;2089808;28;20383;-45
2021/10/31 02:07:52;;;;;;;62.17;37.35;;;;;;;;;;2088873;28;20469;-44
2021/10/31 02:08:54;;;;;;;56.20;36.42;;;;;;;;;;2088333;28;20133;-44
2021/10/31 02:09:55;;;;;;;62.40;37.78;;;;;;;;;;2089939;28;20045;-44
2021/10/31 02:10:57;;;;;;;64.68;39.35;;;;;;;;;;2090176;28;20136;-44
2021/10/31 02:11:59;;;;;;;62.45;39.80;;;;;;;;;;2088296;28;20437;-44
2021/10/31 02:13:01;;;;;;;57.17;34.65;;;;;;;;;;2089829;28;20513;-43
2021/10/31 02:14:02;;;;;;;;;;;;;;;;;;2088095;28;20052;-44
2021/10/31 02:15:04;;;;;;;55.83;34.42;;;;;;;;;;2089625;28;20007;-45
2021/10/31 02:16:05;;;;;;;66.15;39.13;;;;;;;;;;2089728;28;20175;-44
2021/10/31 02:17:07;;;;;;;61.27;38.00;;;;;;;;;;2087448;28;20053;-44
2021/10/31 02:18:11;;;;;;;66.30;37.75;;;;;;;;;;2089689;28;20090;-43
2021/10/31 02:19:15;;;;;;;57.28;36.17;;;;;;;;;;2089736;28;20523;-44
2021/10/31 02:20:16;;;;;;;57.35;35.10;;;;;;;;;;2088613;28;20048;-43
2021/10/31 02:21:20;;;;;;;63.13;38.88;;;;;;;;;;2089840;28;20042;-44
2021/10/31 02:22:24;;;;;;;61.15;35.15;;;;;;;;;;2089112;28;20077;-43
2021/10/31 02:23:26;;;;;;;59.65;38.65;;;;;;;;;;2087849;28;20041;-45
2021/10/31 02:24:27;;;;;;;59.40;34.80;;;;;;;;;;2089690;28;20151;-43
2021/10/31 02:25:28;;;;;;;62.53;41.42;;;;;;;;;;2088775;28;20041;-44
2021/10/31 02:26:29;;;;;;;60.78;37.55;;;;;;;;;;2087949;28;20171;-44
2021/10/31 02:27:32;;;;;;;55.72;34.75;;;;;;;;;;2089580;28;20513;-43
2021/10/31 02:28:36;;;;;;;56.35;34.95;;;;;;;;;;2088701;28;20091;-44
2021/10/31 02:29:43;;;;;;;62.50;38.75;;;;;;;;;;2088177;28;20132;-44
2021/10/31 02:30:44;;;;;;;55.78;37.20;;;;;;;;;;2089872;28;20119;-44
2021/10/31 02:31:46;;;;;;;60.40;37.20;;;;;;;;;;2087435;28;20072;-43
2021/10/31 02:32:47;;;;;;;54.47;33.67;;;;;;;;;;2088389;28;20052;-44
2021/10/31 02:33:48;;;;;;;59.78;36.60;;;;;;;;;;2089741;28;20064;-44
2021/10/31 02:34:49;;;;;;;60.78;36.10;;;;;;;;;;2087585;28;20482;-44
2021/10/31 02:35:50;;;;;;;53.17;33.78;;;;;;;;;;2089500;28;20044;-46
2021/10/31 02:36:51;;;;;;;59.67;35.72;;;;;;;;;;2089760;28;20131;-44
2021/10/31 02:37:52;;;;;;;58.30;38.47;;;;;;;;;;2086502;28;20045;-44
2021/10/31 02:38:57;;;;;;;58.47;34.15;;;;;;;;;;2089578;28;20072;-44
2021/10/31 02:39:58;;;;;;;62.85;39.30;;;;;;;;;;2089184;28;20055;-43
2021/10/31 02:40:59;;;;;;;62.67;35.10;;;;;;;;;;2087887;28;20051;-44
2021/10/31 02:42:00;;;;;;;56.33;34.55;;;;;;;;;;2089541;28;20429;-43
2021/10/31 02:43:02;;;;;;;54.97;34.65;;;;;;;;;;2088993;28;20047;-43
2021/10/31 02:44:03;;;;;;;58.53;35.83;;;;;;;;;;2087862;28;20135;-44
2021/10/31 02:45:05;;;;;;;56.03;34.08;;;;;;;;;;2089509;28;20136;-43
2021/10/31 02:46:06;;;;;;;56.97;38.65;;;;;;;;;;2088788;28;20045;-43
2021/10/31 02:47:08;;;;;;;54.97;32.67;;;;;;;;;;2088041;28;20053;-44
2021/10/31 02:48:10;;;;;;;59.42;36.20;;;;;;;;;;2089669;28;20120;-44
2021/10/31 02:49:12;;;;;;;62.17;34.92;;;;;;;;;;2088289;28;20124;-43
2021/10/31 02:50:15;;;;;;;58.15;35.15;;;;;;;;;;2088509;28;20665;-44
2021/10/31 02:51:18;;;;;;;56.97;35.28;;;;;;;;;;2089346;28;20148;-44
2021/10/31 02:52:25;;;;;;;56.00;36.75;;;;;;;;;;2087354;28;20128;-45
2021/10/31 02:53:33;;;;;;;57.90;35.72;;;;;;;;;;2088801;28;20128;-43
2021/10/31 02:54:42;;;;;;;58.08;32.65;;;;;;;;;;2089700;28;20190;-43
2021/10/31 02:55:47;;;;;;;59.25;35.33;;;;;;;;;;2086666;28;20499;-43
2021/10/31 02:56:51;;;;;;;55.55;33.67;;;;;;;;;;2089397;28;20135;-43
2021/10/31 02:57:55;;;;;;;54.47;35.85;;;;;;;;;;2089018;28;20387;-44
2021/10/31 02:59:00;;;;;;;54.67;33.75;;;;;;;;;;2086860;28;20371;-43
2021/10/31 03:00:03;;;;;;;58.22;34.22;;;;;;;;;;2089561;28;20132;-43
2021/10/31 03:01:05;;;;;;;47.35;31.17;;;;;;;;;;2089583;28;20128;-43
2021/10/31 03:02:09;;;;;;;48.08;29.88;;;;;;;;;;2089080;28;20044;-43
2021/10/31 03:03:12;;;;;;;58.53;34.00;;;;;;;;;;2088057;28;20071;-43
2021/10/31 03:04:12;;;;;;;;;;;;;;;;;;2087665;28;20052;-44
2021/10/31 03:05:14;;;;;;;56.10;31.80;;;;;;;;;;2089547;28;19925;-44
2021/10/31 03:06:18;;;;;;;53.63;32.80;;;;;;;;;;2089384;28;20126;-47
2021/10/31 03:07:21;;;;;;;60.95;34.60;;;;;;;;;;2086417;28;20077;-45
2021/10/31 03:08:21;;;;;;;52.40;32.33;;;;;;;;;;2089568;28;20055;-44
2021/10/31 03:09:23;;;;;;;57.77;34.67;;;;;;;;;;2088887;28;20049;-44
2021/10/31 03:10:27;;;;;;;54.30;34.22;;;;;;;;;;2086963;28;20127;-44
2021/10/31 03:11:29;;;;;;;56.75;35.25;;;;;;;;;;2089268;28;20048;-43
2021/10/31 03:12:30;;;;;;;49.10;30.67;;;;;;;;;;2088676;28;20059;-45
2021/10/31 03:13:31;;;;;;;53.05;33.78;;;;;;;;;;2087060;28;20131;-44
2021/10/31 03:14:32;;;;;;;50.30;30.40;;;;;;;;;;2089409;28;20067;-45
2021/10/31 03:15:33;;;;;;;54.63;32.72;;;;;;;;;;2089793;28;20405;-44
2021/10/31 03:16:35;;;;;;;49.53;30.52;;;;;;;;;;2087916;28;20041;-44
2021/10/31 03:17:36;;;;;;;53.60;32.67;;;;;;;;;;2089355;28;20563;-43
2021/10/31 03:18:37;;;;;;;52.33;35.15;;;;;;;;;;2087350;28;20049;-44
2021/10/31 03:19:38;;;;;;;56.85;33.38;;;;;;;;;;2088060;28;20155;-43
2021/10/31 03:20:39;;;;;;;53.40;30.95;;;;;;;;;;2089374;28;20049;-43
2021/10/31 03:21:40;;;;;;;54.42;32.63;;;;;;;;;;2087063;28;20391;-44
2021/10/31 03:22:41;;;;;;;52.57;31.50;;;;;;;;;;2089214;28;20048;-43
2021/10/31 03:23:42;;;;;;;51.67;32.35;;;;;;;;;;2089363;28;20053;-45
2021/10/31 03:24:43;;;;;;;55.90;32.47;;;;;;;;;;2087227;28;20049;-44
2021/10/31 03:25:45;;;;;;;49.78;31.50;;;;;;;;;;2088746;28;20049;-44
2021/10/31 03:26:46;;;;;;;50.40;30.77;;;;;;;;;;2089221;28;20136;-43
2021/10/31 03:27:47;;;;;;;51.38;31.65;;;;;;;;;;2086983;28;20131;-44
2021/10/31 03:28:48;;;;;;;49.40;34.17;;;;;;;;;;2089308;28;20490;-43
2021/10/31 03:29:49;;;;;;;42.97;26.30;;;;;;;;;;2089337;28;20052;-44
2021/10/31 03:30:50;;;;;;;49.50;32.90;;;;;;;;;;2087068;28;20521;-43
2021/10/31 03:31:51;;;;;;;44.42;29.08;;;;;;;;;;2080870;28;20383;-43
2021/10/31 03:32:53;;;;;;;48.25;31.20;;;;;;;;;;2081149;28;20045;-43
2021/10/31 03:33:54;;;;;;;48.80;29.13;;;;;;;;;;2086343;28;20053;-45
2021/10/31 03:34:56;;;;;;;48.22;32.15;;;;;;;;;;2089267;28;20037;-43
2021/10/31 03:35:57;;;;;;;43.55;28.33;;;;;;;;;;2088880;28;20175;-44
2021/10/31 03:36:58;;;;;;;49.13;31.35;;;;;;;;;;2088446;28;20230;-43
2021/10/31 03:37:59;;;;;;;50.73;32.20;;;;;;;;;;2089402;28;20053;-44
2021/10/31 03:39:00;;;;;;;50.88;31.67;;;;;;;;;;2088771;28;20045;-44
2021/10/31 03:40:02;;;;;;;52.35;32.35;;;;;;;;;;2087475;28;20076;-44
2021/10/31 03:41:03;;;;;;;55.35;32.00;;;;;;;;;;2089258;28;20123;-44
2021/10/31 03:42:05;;;;;;;49.75;32.03;;;;;;;;;;2088651;28;20067;-44
2021/10/31 03:43:06;;;;;;;49.20;30.23;;;;;;;;;;2087428;28;20061;-43
2021/10/31 03:44:07;;;;;;;47.28;30.67;;;;;;;;;;2089405;28;20392;-44
2021/10/31 03:45:10;;;;;;;44.95;29.80;;;;;;;;;;2089833;28;20124;-44
2021/10/31 03:46:11;;;;;;;52.75;31.98;;;;;;;;;;2086939;28;20486;-44
2021/10/31 03:47:12;;;;;;;52.13;34.37;;;;;;;;;;2089311;28;20047;-44
2021/10/31 03:48:13;;;;;;;54.42;31.60;;;;;;;;;;2088314;28;20091;-45
2021/10/31 03:49:14;;;;;;;59.63;33.20;;;;;;;;;;2087930;28;20089;-43
2021/10/31 03:50:16;;;;;;;52.03;32.00;;;;;;;;;;2089124;28;20210;-44
2021/10/31 03:51:17;;;;;;;50.35;33.05;;;;;;;;;;2089382;28;20128;-44
2021/10/31 03:52:18;;;;;;;49.23;31.23;;;;;;;;;;2087828;28;20055;-45
2021/10/31 03:53:19;;;;;;;53.95;32.22;;;;;;;;;;2089331;28;20127;-44
2021/10/31 03:54:20;;;;;;;49.97;32.63;;;;;;;;;;2087075;28;20399;-44
2021/10/31 03:55:21;;;;;;;49.42;31.50;;;;;;;;;;2089092;28;20082;-45
2021/10/31 03:56:23;;;;;;;46.55;29.15;;;;;;;;;;2089318;28;20135;-44
2021/10/31 03:57:24;;;;;;;47.00;30.13;;;;;;;;;;2086810;28;20128;-45
2021/10/31 03:58:25;;;;;;;49.72;31.35;;;;;;;;;;2089168;28;20114;-45
2021/10/31 03:59:26;;;;;;;53.75;32.75;;;;;;;;;;2088704;28;20129;-44
2021/10/31 04:00:27;;;;;;;53.00;33.50;;;;;;;;;;2087392;28;20751;-44
2021/10/31 04:01:31;;;;;;;51.63;32.50;;;;;;;;;;2089196;28;20194;-45
2021/10/31 04:02:33;;;;;;;47.88;30.35;;;;;;;;;;2088506;28;20068;-44
2021/10/31 04:03:34;;;;;;;52.78;31.52;;;;;;;;;;2085846;28;20045;-44
2021/10/31 04:04:35;;;;;;;52.67;31.47;;;;;;;;;;2089264;28;20053;-45
2021/10/31 04:05:36;;;;;;;51.17;31.90;;;;;;;;;;2088347;28;20048;-44
2021/10/31 04:06:37;;;;;;;51.28;30.67;;;;;;;;;;2087498;28;20127;-44
2021/10/31 04:07:38;;;;;;;51.67;33.75;;;;;;;;;;2089155;28;20140;-45
2021/10/31 04:08:39;;;;;;;48.93;31.70;;;;;;;;;;2088190;28;20490;-45
2021/10/31 04:09:40;;;;;;;57.55;33.05;;;;;;;;;;2087601;28;20128;-45
2021/10/31 04:10:41;;;;;;;51.42;32.65;;;;;;;;;;2089093;28;20068;-43
2021/10/31 04:11:43;;;;;;;48.17;31.90;;;;;;;;;;2089239;28;20409;-44
2021/10/31 04:12:49;;;;;;;51.70;32.10;;;;;;;;;;2087768;28;20052;-45
2021/10/31 04:13:50;;;;;;;50.42;30.77;;;;;;;;;;2089125;28;20407;-43
2021/10/31 04:14:51;;;;;;;50.87;31.30;;;;;;;;;;2086931;28;20056;-44
2021/10/31 04:15:52;;;;;;;51.78;31.58;;;;;;;;;;2088979;28;20509;-44
2021/10/31 04:16:54;;;;;;;53.23;33.27;;;;;;;;;;2089122;28;20049;-43
2021/10/31 04:17:54;;;;;;;53.63;30.98;;;;;;;;;;2086519;28;20124;-44
2021/10/31 04:18:55;;;;;;;52.97;35.15;;;;;;;;;;2089046;28;20045;-44
2021/10/31 04:19:56;;;;;;;52.58;33.70;;;;;;;;;;2088974;28;20458;-43
2021/10/31 04:20:58;;;;;;;55.83;33.72;;;;;;;;;;2086629;28;20123;-44
2021/10/31 04:21:59;;;;;;;51.65;33.15;;;;;;;;;;2088814;28;20045;-44
2021/10/31 04:23:00;;;;;;;55.83;34.75;;;;;;;;;;2089235;28;20059;-43
2021/10/31 04:24:01;;;;;;;51.83;31.77;;;;;;;;;;2086639;28;20054;-44
2021/10/31 04:25:03;;;;;;;52.83;32.47;;;;;;;;;;2089094;28;20060;-44
2021/10/31 04:26:04;;;;;;;52.97;31.65;;;;;;;;;;2089043;28;20195;-44
2021/10/31 04:27:06;;;;;;;55.30;33.87;;;;;;;;;;2088223;28;20526;-44
2021/10/31 04:28:07;;;;;;;52.35;31.75;;;;;;;;;;2089018;28;20120;-44
2021/10/31 04:29:08;;;;;;;44.10;29.67;;;;;;;;;;2089084;28;20045;-43
2021/10/31 04:30:10;;;;;;;49.53;30.00;;;;;;;;;;2087700;28;20403;-44
2021/10/31 04:31:11;;;;;;;51.28;29.30;;;;;;;;;;2088869;28;20125;-45
2021/10/31 04:32:12;;;;;;;53.55;31.92;;;;;;;;;;2089898;28;20095;-44
2021/10/31 04:33:13;;;;;;;50.92;31.00;;;;;;;;;;2086274;28;20182;-43
2021/10/31 04:34:14;;;;;;;50.38;31.63;;;;;;;;;;2088950;28;20464;-45
2021/10/31 04:35:15;;;;;;;44.53;31.33;;;;;;;;;;2089803;28;20057;-44
2021/10/31 04:36:18;;;;;;;52.67;31.20;;;;;;;;;;2087290;28;20148;-43
2021/10/31 04:37:19;;;;;;;50.58;31.80;;;;;;;;;;2088899;28;20136;-44
2021/10/31 04:38:23;;;;;;;53.90;34.30;;;;;;;;;;2088842;28;20124;-43
2021/10/31 04:39:23;;;;;;;54.85;34.78;;;;;;;;;;2088795;28;20436;-45
2021/10/31 04:40:25;;;;;;;51.40;31.83;;;;;;;;;;2090433;28;20049;-44
2021/10/31 04:41:29;;;;;;;51.55;30.88;;;;;;;;;;2088960;28;20045;-43
2021/10/31 04:42:32;;;;;;;57.03;34.55;;;;;;;;;;2089783;28;20045;-44
2021/10/31 04:43:33;;;;;;;58.83;33.53;;;;;;;;;;2090559;28;20056;-44
2021/10/31 04:44:35;;;;;;;50.97;30.85;;;;;;;;;;2088062;28;20037;-45
2021/10/31 04:45:37;;;;;;;47.78;29.65;;;;;;;;;;2090058;28;20504;-46
2021/10/31 04:46:37;;;;;;;;;;;;;;;;;;2090813;28;20076;-45
2021/10/31 04:47:39;;;;;;;51.35;31.70;;;;;;;;;;2088043;28;20333;-44
2021/10/31 04:48:40;;;;;;;53.33;31.40;;;;;;;;;;2090224;28;20094;-44
2021/10/31 04:49:41;;;;;;;56.67;33.88;;;;;;;;;;2090286;28;20103;-44
2021/10/31 04:50:42;;;;;;;51.15;32.40;;;;;;;;;;2087900;28;20203;-45
2021/10/31 04:51:43;;;;;;;52.37;31.17;;;;;;;;;;2090231;28;20135;-44
2021/10/31 04:52:44;;;;;;;53.75;32.42;;;;;;;;;;2090355;28;20057;-44
2021/10/31 04:53:45;;;;;;;53.10;32.90;;;;;;;;;;2087841;28;20045;-45
2021/10/31 04:54:46;;;;;;;51.38;32.70;;;;;;;;;;2090406;28;20124;-44
2021/10/31 04:55:47;;;;;;;53.83;33.80;;;;;;;;;;2089835;28;20056;-45
2021/10/31 04:56:48;;;;;;;57.38;35.25;;;;;;;;;;2088313;28;20174;-44
2021/10/31 04:57:49;;;;;;;54.33;33.60;;;;;;;;;;2090296;28;20065;-44
2021/10/31 04:58:51;;;;;;;53.55;33.42;;;;;;;;;;2089840;28;20132;-44
2021/10/31 04:59:52;;;;;;;54.35;31.77;;;;;;;;;;2088388;28;20049;-46
2021/10/31 05:00:53;;;;;;;55.25;34.47;;;;;;;;;;2090490;28;20136;-44
2021/10/31 05:01:54;;;;;;;54.78;33.85;;;;;;;;;;2089614;28;20045;-45
2021/10/31 05:02:55;;;;;;;50.85;32.10;;;;;;;;;;2087212;28;20053;-45
2021/10/31 05:03:56;;;;;;;55.60;32.13;;;;;;;;;;2090273;28;20495;-46
2021/10/31 05:04:57;;;;;;;55.28;32.03;;;;;;;;;;2089555;28;20402;-44
2021/10/31 05:05:59;;;;;;;51.70;31.67;;;;;;;;;;2088540;28;20056;-45
2021/10/31 05:07:00;;;;;;;52.40;32.58;;;;;;;;;;2090153;28;20123;-44
2021/10/31 05:08:02;;;;;;;54.13;35.33;;;;;;;;;;2089342;28;20049;-45
2021/10/31 05:09:03;;;;;;;49.65;31.50;;;;;;;;;;2088577;28;20123;-44
2021/10/31 05:10:04;;;;;;;54.10;33.08;;;;;;;;;;2090343;28;20105;-44
2021/10/31 05:11:05;;;;;;;49.47;31.83;;;;;;;;;;2088833;28;20088;-44
2021/10/31 05:12:07;;;;;;;51.47;32.83;;;;;;;;;;2089333;28;20045;-44
2021/10/31 05:13:08;;;;;;;47.42;28.70;;;;;;;;;;2090239;28;20381;-45
2021/10/31 05:14:09;;;;;;;47.45;31.70;;;;;;;;;;2087810;28;20204;-45
2021/10/31 05:15:29;;;;;;;51.65;30.40;;;;;;;;;;2090074;28;20048;-45
2021/10/31 05:16:30;;;;;;;46.35;30.65;;;;;;;;;;2090275;28;20132;-45
2021/10/31 05:17:32;;;;;;;48.05;32.50;;;;;;;;;;2089068;28;20103;-44
2021/10/31 05:18:34;;;;;;;51.17;31.63;;;;;;;;;;2090081;28;20041;-46
2021/10/31 05:19:35;;;;;;;50.67;30.67;;;;;;;;;;2089544;28;20055;-44
2021/10/31 05:20:36;;;;;;;57.08;32.75;;;;;;;;;;2088209;28;20045;-45
2021/10/31 05:21:37;;;;;;;51.60;31.23;;;;;;;;;;2090240;28;20079;-45
2021/10/31 05:22:38;;;;;;;44.83;29.27;;;;;;;;;;2089566;28;20490;-45
2021/10/31 05:23:39;;;;;;;47.25;30.70;;;;;;;;;;2087242;28;20140;-44
2021/10/31 05:24:41;;;;;;;53.33;33.03;;;;;;;;;;2090098;28;20063;-45
2021/10/31 05:25:42;;;;;;;54.22;31.80;;;;;;;;;;2089530;28;20127;-45
2021/10/31 05:26:43;;;;;;;55.22;31.58;;;;;;;;;;2088259;28;20045;-44
2021/10/31 05:27:44;;;;;;;48.27;30.77;;;;;;;;;;2090254;28;20120;-44
2021/10/31 05:28:46;;;;;;;48.95;32.13;;;;;;;;;;2089313;28;20835;-45
2021/10/31 05:29:48;;;;;;;48.40;32.72;;;;;;;;;;2088519;28;20098;-44
2021/10/31 05:30:49;;;;;;;46.42;30.25;;;;;;;;;;2089997;28;20143;-44
2021/10/31 05:31:50;;;;;;;50.25;29.83;;;;;;;;;;2088615;28;20490;-45
2021/10/31 05:32:52;;;;;;;58.57;35.60;;;;;;;;;;2089096;28;20053;-44
2021/10/31 05:33:53;;;;;;;;;;;;;;;;;;2090383;28;20529;-44
2021/10/31 05:34:54;;;;;;;49.30;28.50;;;;;;;;;;2088038;28;19924;-46
2021/10/31 05:35:55;;;;;;;51.42;33.30;;;;;;;;;;2088574;28;20379;-44
2021/10/31 05:36:56;;;;;;;51.10;32.70;;;;;;;;;;2090069;28;20080;-45
2021/10/31 05:37:57;;;;;;;57.53;37.33;;;;;;;;;;2087883;28;20059;-45
2021/10/31 05:38:59;;;;;;;57.67;33.63;;;;;;;;;;2089720;28;20469;-44
2021/10/31 05:40:00;;;;;;;61.78;37.55;;;;;;;;;;2089970;28;20045;-44
2021/10/31 05:41:03;;;;;;;52.42;30.85;;;;;;;;;;2087642;28;20116;-44
2021/10/31 05:42:04;;;;;;;52.80;34.17;;;;;;;;;;2089843;28;20049;-45
2021/10/31 05:43:05;;;;;;;48.10;31.17;;;;;;;;;;2089955;28;20053;-44
2021/10/31 05:44:07;;;;;;;58.05;35.60;;;;;;;;;;2087724;28;20099;-44
2021/10/31 05:45:09;;;;;;;57.90;37.63;;;;;;;;;;2089938;28;20144;-44
2021/10/31 05:46:10;;;;;;;;;;;;;;;;;;2090510;28;20072;-45
2021/10/31 05:47:10;;;;;;;52.75;32.38;;;;;;;;;;2087445;28;19944;-44
2021/10/31 05:48:12;;;;;;;52.33;32.17;;;;;;;;;;2090085;28;20045;-45
2021/10/31 05:49:13;;;;;;;52.83;33.35;;;;;;;;;;2089226;28;20445;-44
2021/10/31 05:50:15;;;;;;;61.03;34.60;;;;;;;;;;2089110;28;20046;-45
2021/10/31 05:51:16;;;;;;;55.40;36.75;;;;;;;;;;2090091;28;20508;-46
2021/10/31 05:52:17;;;;;;;53.03;33.43;;;;;;;;;;2089324;28;20174;-45
2021/10/31 05:53:19;;;;;;;56.60;33.03;;;;;;;;;;2087997;28;20569;-45
2021/10/31 05:54:19;;;;;;;51.05;33.75;;;;;;;;;;2089949;28;20585;-45
2021/10/31 05:55:20;;;;;;;55.53;35.03;;;;;;;;;;2089250;28;20083;-44
2021/10/31 05:56:21;;;;;;;50.97;34.05;;;;;;;;;;2088135;28;20128;-44
2021/10/31 05:57:22;;;;;;;53.72;34.53;;;;;;;;;;2089938;28;20098;-44
2021/10/31 05:58:23;;;;;;;52.27;32.00;;;;;;;;;;2090192;28;20147;-45
2021/10/31 05:59:25;;;;;;;52.45;36.30;;;;;;;;;;2088596;28;20423;-44
2021/10/31 06:00:26;;;;;;;50.38;32.85;;;;;;;;;;2089849;28;20383;-44
2021/10/31 06:01:27;;;;;;;48.55;30.33;;;;;;;;;;2088916;28;20102;-44
2021/10/31 06:02:28;;;;;;;50.93;31.07;;;;;;;;;;2088308;28;20493;-46
2021/10/31 06:03:30;;;;;;;46.58;32.10;;;;;;;;;;2088408;28;20282;-44